Portada
METAR-TAF:

METAR-TAF

Aeroports :

Cayman Brac, Illes Caiman

latitud: 19-41-13N, longitud: 079-52-58W, altitud: 2 m

Observació

L'informe es va fer fa 30 minuts, a les 20:00 UTC
Vent 6 kt del Est/Nord-Est
Temperatura 28°C
Humitat 66%
Pressió 1014 hPa
Visibilitat 10 km o més
Núvols disperses a una alçada de 1800 ft

METAR: MWCB 222000Z 07006KT 9999 SCT018 28/21 Q1014

Hora: 15:30 (20:30 UTC)

Pronòstic

L'informe es va fer fa 3 hores i 30 minuts, a les 17:00 UTC
Pronòstic vàlid del 22 a les 18 UTC al 23 a les 18 UTC
Vent 13 kt del Est
Visibilitat 10 km o més
Escasses núvols a una alçada de 2000 ft
Cel ennuvolat a una alçada de 3000 ft

TAF: MWCB 221700Z 2218/2318 08013KT 9999 FEW020 BKN030

Observacions i pronòstics meteorològics de més de 4000 aeroports (METAR i TAF).

Les estacions disponibles són els punts grocs i vermells al mapa.

Posi el ratolí al punt desitjat per veure el nom de l'estació.

Feu clic per veure les observacions i els pronòstics meteorològics.

Per canviar el mapa: feu clic els botons verds amb una creu de color negre per apropar; al botó verd amb un guió per allunyar la imatge; o en les fletxes verdes per a mapes adjacents.


METAR-TAF: